Time;durP1;ratioP1;P1;durP2;ratioP2;P2;SDS_P1;SDS_P2;PMS_P1;PMS_P2;Temp;Humidity;BMP_temperature;BMP_pressure;BME280_temperature;BME280_humidity;BME280_pressure;Samples;Min_cycle;Max_cycle;Signal;HPM_P1;HPM_P2
2024/04/07 00:00:59;;;;;;;11.85;6.93;;;;;;;13.75;100.00;99085.16;4989915;28;20034;-67
2024/04/07 00:03:25;;;;;;;12.70;7.45;;;;;;;13.65;100.00;99072.19;4997715;28;20053;-67
2024/04/07 00:05:56;;;;;;;11.55;6.53;;;;;;;13.52;100.00;99089.22;5017127;28;20080;-64
2024/04/07 00:08:23;;;;;;;10.32;6.72;;;;;;;13.24;100.00;99077.06;5032488;28;20053;-68
2024/04/07 00:10:49;;;;;;;12.63;6.32;;;;;;;13.18;100.00;99037.66;5001308;28;20022;-69
2024/04/07 00:13:14;;;;;;;9.98;6.45;;;;;;;13.54;100.00;99079.44;4990624;28;21285;-67
2024/04/07 00:15:40;;;;;;;8.82;6.22;;;;;;;13.50;100.00;99075.50;4999581;28;20022;-68
2024/04/07 00:18:08;;;;;;;8.73;5.93;;;;;;;13.54;100.00;99079.44;4997274;28;20045;-68
2024/04/07 00:20:33;;;;;;;11.57;6.22;;;;;;;13.49;100.00;99076.47;4996910;28;20669;-68
2024/04/07 00:22:58;;;;;;;11.07;6.47;;;;;;;13.43;100.00;99068.28;5012314;28;20034;-67
2024/04/07 00:25:26;;;;;;;11.98;6.95;;;;;;;13.21;100.00;99026.94;4999769;28;20030;-68
2024/04/07 00:27:51;;;;;;;11.93;6.18;;;;;;;13.48;100.00;99061.78;4990049;28;20037;-68
2024/04/07 00:30:19;;;;;;;10.30;6.20;;;;;;;13.06;100.00;98995.34;5013786;28;20401;-67
2024/04/07 00:32:45;;;;;;;10.93;6.63;;;;;;;13.59;100.00;99051.09;5013094;28;20113;-68
2024/04/07 00:35:10;;;;;;;9.77;5.78;;;;;;;13.70;100.00;99045.59;5013507;28;20025;-67
2024/04/07 00:37:35;;;;;;;13.23;6.75;;;;;;;13.65;100.00;99016.47;5014309;28;20715;-69
2024/04/07 00:40:04;;;;;;;13.65;7.05;;;;;;;13.89;100.00;99047.19;5017254;28;20038;-69
2024/04/07 00:42:31;;;;;;;12.85;6.60;;;;;;;13.88;100.00;99039.50;5011882;28;20056;-66
2024/04/07 00:45:02;;;;;;;12.18;5.97;;;;;;;13.75;100.00;99039.91;4998338;28;20587;-67
2024/04/07 00:47:27;;;;;;;10.02;6.15;;;;;;;13.50;100.00;99031.91;4996179;28;20036;-68
2024/04/07 00:49:53;;;;;;;10.85;6.88;;;;;;;13.68;100.00;99031.06;5006248;28;20033;-66
2024/04/07 00:52:18;;;;;;;11.52;6.55;;;;;;;13.69;100.00;99030.91;5014443;28;20034;-68
2024/04/07 00:54:44;;;;;;;9.77;6.40;;;;;;;13.49;100.00;98998.94;4998881;28;20018;-67
2024/04/07 00:57:12;;;;;;;11.57;6.80;;;;;;;13.57;100.00;99032.13;5003367;28;20026;-68
2024/04/07 00:59:37;;;;;;;12.55;6.80;;;;;;;13.49;100.00;99043.34;5013278;28;20025;-68
2024/04/07 01:02:08;;;;;;;11.43;6.55;;;;;;;13.49;100.00;99038.13;4999320;28;20030;-68
2024/04/07 01:04:34;;;;;;;12.98;6.43;;;;;;;13.38;100.00;99002.63;5029159;28;20141;-68
2024/04/07 01:06:59;;;;;;;10.05;6.78;;;;;;;13.64;100.00;99036.56;4977867;28;20032;-66
2024/04/07 01:09:26;;;;;;;11.77;6.95;;;;;;;13.42;100.00;99035.28;5011361;28;20045;-68
2024/04/07 01:11:55;;;;;;;10.30;6.55;;;;;;;13.32;100.00;99002.41;5012832;28;20036;-67
2024/04/07 01:14:20;;;;;;;11.18;6.88;;;;;;;13.48;100.00;98996.47;4992517;28;20034;-68
2024/04/07 01:16:48;;;;;;;9.98;6.20;;;;;;;13.73;100.00;99027.00;4996656;28;20034;-67
2024/04/07 01:19:14;;;;;;;13.40;6.55;;;;;;;13.64;100.00;99030.53;5010892;28;20030;-66
2024/04/07 01:21:39;;;;;;;10.75;6.38;;;;;;;13.45;100.00;98994.97;5009891;28;20044;-67
2024/04/07 01:24:07;;;;;;;10.27;6.43;;;;;;;13.58;100.00;99012.84;5006053;28;20034;-67
2024/04/07 01:26:35;;;;;;;10.85;6.50;;;;;;;13.48;100.00;99012.97;4999737;28;20104;-66
2024/04/07 01:29:00;;;;;;;10.57;6.53;;;;;;;13.31;100.00;99013.84;5004833;28;20495;-64
2024/04/07 01:31:28;;;;;;;13.43;7.15;;;;;;;12.88;100.00;99018.81;5005953;28;20038;-67
2024/04/07 01:33:53;;;;;;;10.52;7.07;;;;;;;12.52;100.00;98964.03;4996859;28;20151;-68
2024/04/07 01:36:19;;;;;;;10.70;7.25;;;;;;;12.90;100.00;98996.00;4993459;28;21102;-69
2024/04/07 01:38:45;;;;;;;10.90;7.32;;;;;;;12.90;100.00;98990.78;4995385;28;20815;-68
2024/04/07 01:41:12;;;;;;;12.00;7.07;;;;;;;12.89;100.00;98997.81;5010747;28;20150;-69
2024/04/07 01:43:38;;;;;;;11.15;6.85;;;;;;;12.65;100.00;99006.25;4996829;28;20100;-69
2024/04/07 01:46:06;;;;;;;10.05;7.32;;;;;;;12.43;100.00;98991.84;4994256;28;20814;-68
2024/04/07 01:48:31;;;;;;;14.45;7.70;;;;;;;12.47;100.00;98995.78;4983516;28;20030;-68
2024/04/07 01:50:59;;;;;;;10.93;7.50;;;;;;;12.33;100.00;98987.66;4997983;28;20026;-68
2024/04/07 01:53:29;;;;;;;10.05;7.45;;;;;;;12.38;100.00;98991.44;5002570;28;20094;-66
2024/04/07 01:55:54;;;;;;;12.07;7.05;;;;;;;12.28;100.00;98949.81;4981283;28;20022;-68
2024/04/07 01:58:21;;;;;;;11.25;6.95;;;;;;;12.57;100.00;98992.28;4998362;28;21222;-67
2024/04/07 02:00:48;;;;;;;12.55;7.60;;;;;;;12.55;100.00;98995.03;4995087;28;20029;-66
2024/04/07 02:03:14;;;;;;;12.05;7.80;;;;;;;12.53;100.00;98983.13;4984007;28;20049;-67
2024/04/07 02:05:39;;;;;;;12.15;7.30;;;;;;;12.75;100.00;98995.72;5015683;28;20030;-68
2024/04/07 02:08:05;;;;;;;10.30;6.97;;;;;;;12.84;100.00;98987.00;5001877;28;20751;-67
2024/04/07 02:10:30;;;;;;;10.45;6.78;;;;;;;13.00;100.00;98998.56;4987758;28;20041;-65
2024/04/07 02:12:57;;;;;;;12.35;7.18;;;;;;;12.68;100.00;98998.09;4995884;28;20034;-68
2024/04/07 02:15:24;;;;;;;10.80;7.22;;;;;;;12.71;100.00;98999.59;4980864;28;20489;-66
2024/04/07 02:17:50;;;;;;;11.20;6.70;;;;;;;12.65;100.00;99008.84;5002958;28;20030;-65
2024/04/07 02:20:18;;;;;;;11.40;6.53;;;;;;;12.66;100.00;98999.22;4993969;28;20037;-68
2024/04/07 02:22:48;;;;;;;11.13;6.90;;;;;;;12.59;100.00;99006.00;4993397;28;20038;-68
2024/04/07 02:25:16;;;;;;;12.02;6.43;;;;;;;12.27;100.00;98968.19;5010866;28;20045;-68
2024/04/07 02:27:43;;;;;;;13.00;6.90;;;;;;;12.18;100.00;98959.47;5008429;28;20101;-67
2024/04/07 02:30:09;;;;;;;11.05;7.32;;;;;;;12.38;100.00;98999.28;4993624;28;20112;-67
2024/04/07 02:32:35;;;;;;;11.55;7.22;;;;;;;12.18;100.00;98988.13;4999885;28;20195;-67
2024/04/07 02:35:00;;;;;;;13.38;8.10;;;;;;;12.19;100.00;98989.75;5012328;28;20516;-67
2024/04/07 02:37:26;;;;;;;11.65;7.13;;;;;;;12.27;100.00;98989.06;5010923;28;20034;-67
2024/04/07 02:39:51;;;;;;;11.32;7.10;;;;;;;12.26;100.00;98979.56;4997900;28;20865;-64
2024/04/07 02:42:19;;;;;;;14.27;7.43;;;;;;;12.10;100.00;98975.00;4993185;28;20040;-67
2024/04/07 02:50:17;;;;;;;13.00;7.22;;;;;;;12.13;100.00;98953.06;5005484;28;20117;-68
2024/04/07 02:52:43;;;;;;;10.73;6.90;;;;;;;12.38;100.00;98969.78;4996176;28;20049;-68
2024/04/07 02:55:10;;;;;;;10.95;6.93;;;;;;;12.45;100.00;98963.00;5011817;28;20097;-68
2024/04/07 02:57:38;;;;;;;12.68;7.25;;;;;;;12.37;100.00;98966.31;4994778;28;20034;-68
2024/04/07 03:00:04;;;;;;;12.98;7.60;;;;;;;12.29;100.00;98967.06;5013997;28;20587;-69
2024/04/07 03:02:30;;;;;;;10.98;7.15;;;;;;;12.38;100.00;98957.56;4995276;28;20024;-68
2024/04/07 03:04:58;;;;;;;11.02;7.13;;;;;;;12.20;100.00;98926.25;4993725;28;20050;-67
2024/04/07 03:07:26;;;;;;;11.40;6.68;;;;;;;12.18;100.00;98932.59;4998751;28;20054;-68
2024/04/07 03:09:54;;;;;;;10.18;6.53;;;;;;;12.43;100.00;98965.75;4998217;28;20034;-68
2024/04/07 03:12:22;;;;;;;12.30;7.10;;;;;;;12.33;100.00;98927.69;4993237;28;20021;-68
2024/04/07 03:14:54;;;;;;;14.70;6.78;;;;;;;12.66;100.00;98960.91;5010387;28;20496;-67
2024/04/07 03:17:20;;;;;;;10.10;6.18;;;;;;;12.65;100.00;98961.88;4997383;28;20141;-68
2024/04/07 03:19:46;;;;;;;13.25;6.72;;;;;;;12.71;100.00;98968.28;4991576;28;20771;-66
2024/04/07 03:22:12;;;;;;;10.70;6.53;;;;;;;12.77;100.00;98977.31;5002948;28;20045;-69
2024/04/07 03:24:40;;;;;;;9.90;6.68;;;;;;;12.60;100.00;98971.94;4992403;28;20030;-65
2024/04/07 03:27:05;;;;;;;11.20;6.45;;;;;;;12.52;100.00;98968.44;4994189;28;20544;-70
2024/04/07 03:29:34;;;;;;;10.98;6.82;;;;;;;12.63;100.00;98973.41;5006486;28;20030;-67
2024/04/07 03:32:00;;;;;;;9.50;6.50;;;;;;;12.79;100.00;98970.97;4995152;28;20025;-69
2024/04/07 03:34:25;;;;;;;10.48;6.50;;;;;;;12.81;100.00;98966.44;5010892;28;20037;-68
2024/04/07 03:36:51;;;;;;;11.23;6.78;;;;;;;12.82;100.00;98964.63;5028550;28;20057;-68
2024/04/07 03:39:17;;;;;;;14.20;6.72;;;;;;;12.84;100.00;98968.72;5008993;28;20400;-69
2024/04/07 03:41:43;;;;;;;10.20;6.15;;;;;;;12.84;100.00;98962.69;4997192;28;20025;-66
2024/04/07 03:44:10;;;;;;;9.18;6.78;;;;;;;12.87;100.00;98958.00;4982612;28;20041;-69
2024/04/07 03:46:41;;;;;;;12.50;6.80;;;;;;;12.65;100.00;98929.78;4992180;28;20057;-68
2024/04/07 03:49:08;;;;;;;12.48;6.63;;;;;;;12.69;100.00;98965.03;4991825;28;20501;-68
2024/04/07 03:51:33;;;;;;;9.48;6.22;;;;;;;12.70;100.00;98969.25;4994713;28;20057;-66
2024/04/07 03:53:59;;;;;;;10.85;6.30;;;;;;;12.55;100.00;98968.94;5010248;28;20542;-66
2024/04/07 03:56:24;;;;;;;10.48;7.13;;;;;;;12.58;100.00;98963.44;4998026;28;20025;-67
2024/04/07 03:58:50;;;;;;;9.68;6.47;;;;;;;12.59;100.00;98948.59;4990917;28;20594;-68
2024/04/07 04:01:16;;;;;;;8.95;6.80;;;;;;;12.69;100.00;98952.78;5007011;28;20377;-69
2024/04/07 04:03:42;;;;;;;12.45;7.07;;;;;;;12.81;100.00;98955.16;5010118;28;20053;-69
2024/04/07 04:06:07;;;;;;;9.10;6.50;;;;;;;12.77;100.00;98936.38;4998262;28;20029;-66
2024/04/07 04:08:33;;;;;;;10.13;5.95;;;;;;;12.78;100.00;98950.25;4991203;28;20500;-68
2024/04/07 04:11:02;;;;;;;8.73;6.53;;;;;;;12.71;100.00;98946.59;4985535;28;20419;-67
2024/04/07 04:13:28;;;;;;;10.90;6.22;;;;;;;12.80;100.00;98959.56;4993429;28;20117;-69
2024/04/07 04:15:56;;;;;;;11.68;6.05;;;;;;;12.86;100.00;98955.53;4995440;28;20029;-68
2024/04/07 04:18:21;;;;;;;12.23;6.60;;;;;;;12.56;100.00;98960.16;4981992;28;20046;-68
2024/04/07 04:20:50;;;;;;;13.20;7.57;;;;;;;12.48;100.00;98967.91;4996049;28;20025;-65
2024/04/07 04:23:17;;;;;;;12.75;7.28;;;;;;;12.01;100.00;98935.00;4994940;28;20086;-66
2024/04/07 04:25:58;;;;;;;10.57;7.30;;;;;;;12.35;100.00;98965.66;4993110;28;20146;-67
2024/04/07 04:28:24;;;;;;;12.68;7.55;;;;;;;12.38;100.00;98967.97;4989898;28;20144;-67
2024/04/07 04:31:01;;;;;;;13.18;6.78;;;;;;;12.33;100.00;98961.56;4995185;28;20048;-67
2024/04/07 04:33:30;;;;;;;10.95;7.55;;;;;;;12.25;100.00;98963.13;4983120;28;20108;-64
2024/04/07 04:35:55;;;;;;;15.13;7.88;;;;;;;12.16;100.00;98963.19;4998946;28;20049;-68
2024/04/07 04:38:23;;;;;;;10.65;6.78;;;;;;;12.14;100.00;98954.66;4999462;28;20456;-68
2024/04/07 04:40:53;;;;;;;12.43;7.47;;;;;;;12.14;100.00;98954.66;4998794;28;20065;-67
2024/04/07 04:43:21;;;;;;;11.75;7.35;;;;;;;11.88;100.00;98919.69;4981792;28;20042;-67
2024/04/07 04:46:03;;;;;;;11.52;7.15;;;;;;;12.37;100.00;98965.50;5010479;28;20095;-65
2024/04/07 04:48:31;;;;;;;10.30;7.65;;;;;;;12.21;100.00;98966.16;4993985;28;20030;-66
2024/04/07 04:50:56;;;;;;;12.70;7.63;;;;;;;12.22;100.00;98958.19;5030727;28;20461;-67
2024/04/07 04:53:22;;;;;;;14.25;7.68;;;;;;;12.17;100.00;98944.78;4997156;28;20061;-67
2024/04/07 04:55:47;;;;;;;11.98;7.45;;;;;;;12.32;100.00;98958.16;4998041;28;20037;-68
2024/04/07 04:58:12;;;;;;;15.35;7.95;;;;;;;12.22;100.00;98962.59;5004261;28;20042;-67
2024/04/07 05:00:38;;;;;;;15.18;7.80;;;;;;;12.31;100.00;98961.72;4992448;28;20041;-68
2024/04/07 05:03:03;;;;;;;11.35;6.75;;;;;;;12.28;100.00;98957.63;4984951;28;20038;-68
2024/04/07 05:05:29;;;;;;;13.88;7.30;;;;;;;12.31;100.00;98954.69;4997204;28;20054;-68
2024/04/07 05:07:56;;;;;;;12.65;7.18;;;;;;;12.18;100.00;98962.06;5009864;28;20054;-66
2024/04/07 05:10:21;;;;;;;11.40;7.72;;;;;;;12.34;100.00;98971.03;4996045;28;20044;-68
2024/04/07 05:12:47;;;;;;;11.95;7.18;;;;;;;12.40;100.00;98960.81;5014639;28;20888;-67
2024/04/07 05:15:12;;;;;;;10.15;6.63;;;;;;;12.43;100.00;98957.09;4996469;28;20034;-68
2024/04/07 05:17:41;;;;;;;10.93;6.78;;;;;;;12.18;100.00;98925.56;4997450;28;20080;-66
2024/04/07 05:20:09;;;;;;;10.10;6.18;;;;;;;12.52;100.00;98968.44;4982395;28;20061;-66
2024/04/07 05:22:35;;;;;;;8.73;7.10;;;;;;;12.34;100.00;98926.69;5028681;28;20305;-68
2024/04/07 05:25:01;;;;;;;9.13;6.72;;;;;;;12.66;100.00;98973.13;5013527;28;20491;-67
2024/04/07 05:27:27;;;;;;;9.30;6.32;;;;;;;12.37;100.00;98940.25;5014045;28;20029;-69
2024/04/07 05:29:52;;;;;;;14.88;6.75;;;;;;;12.28;100.00;98973.28;4998118;28;20034;-66
2024/04/07 05:32:18;;;;;;;11.73;6.72;;;;;;;12.03;100.00;98934.84;4995996;28;20033;-67
2024/04/07 05:34:48;;;;;;;11.73;6.78;;;;;;;12.33;100.00;98970.19;5013583;28;20847;-68
2024/04/07 05:37:14;;;;;;;11.05;7.13;;;;;;;12.33;100.00;98949.34;5015856;28;20042;-67
2024/04/07 05:39:41;;;;;;;10.23;6.90;;;;;;;12.45;100.00;98981.25;4994888;28;20029;-67
2024/04/07 05:42:06;;;;;;;10.23;6.40;;;;;;;12.48;100.00;98992.22;4997397;28;20025;-65
2024/04/07 05:44:31;;;;;;;11.68;6.82;;;;;;;12.40;100.00;98981.69;4997017;28;20679;-69
2024/04/07 05:46:57;;;;;;;11.60;6.60;;;;;;;12.28;100.00;98956.78;4999447;28;20045;-67
2024/04/07 05:49:22;;;;;;;10.95;6.97;;;;;;;12.14;100.00;98945.09;5012448;28;20030;-67
2024/04/07 05:51:50;;;;;;;9.13;7.07;;;;;;;12.45;100.00;98992.50;5015217;28;20539;-69
2024/04/07 05:54:15;;;;;;;12.63;7.28;;;;;;;12.26;100.00;98980.38;4995932;28;20100;-67
2024/04/07 05:56:45;;;;;;;11.07;6.80;;;;;;;12.26;100.00;98975.19;5031729;28;20037;-67
2024/04/07 05:59:11;;;;;;;12.07;7.03;;;;;;;12.12;100.00;98991.34;5009931;28;20133;-66
2024/04/07 06:01:36;;;;;;;12.48;7.63;;;;;;;12.26;100.00;98985.59;4995220;28;20029;-65
2024/04/07 06:04:06;;;;;;;12.73;7.07;;;;;;;12.09;100.00;98955.94;5010455;28;20057;-68
2024/04/07 06:06:32;;;;;;;11.23;6.68;;;;;;;12.23;100.00;98985.06;4996070;28;20070;-67
2024/04/07 06:08:57;;;;;;;12.48;7.60;;;;;;;12.44;100.00;98992.66;5029532;28;20030;-66
2024/04/07 06:11:23;;;;;;;11.35;7.25;;;;;;;12.22;100.00;98952.16;5011668;28;20053;-67
2024/04/07 06:13:48;;;;;;;10.60;7.32;;;;;;;12.45;100.00;98989.91;4997916;28;20038;-67
2024/04/07 06:16:13;;;;;;;10.80;6.60;;;;;;;12.25;100.00;98950.09;4997371;28;20038;-68
2024/04/07 06:18:41;;;;;;;10.10;7.00;;;;;;;12.53;100.00;98989.16;5014208;28;20032;-68
2024/04/07 06:21:10;;;;;;;12.20;6.78;;;;;;;12.57;100.00;98994.91;4995547;28;20040;-65
2024/04/07 06:23:36;;;;;;;9.63;6.40;;;;;;;12.45;100.00;98987.28;5028144;28;20022;-68
2024/04/07 06:26:02;;;;;;;10.55;7.28;;;;;;;12.21;100.00;98950.50;5009856;28;20373;-69
2024/04/07 06:28:30;;;;;;;9.82;6.85;;;;;;;12.52;100.00;98984.88;5029769;28;20018;-68
2024/04/07 06:30:55;;;;;;;9.93;7.05;;;;;;;12.45;100.00;98987.28;5015919;28;20140;-67
2024/04/07 06:33:26;;;;;;;10.77;6.35;;;;;;;12.56;100.00;98988.88;4996125;28;20099;-66
2024/04/07 06:35:54;;;;;;;12.02;6.63;;;;;;;12.58;100.00;98986.13;4995935;28;20144;-68
2024/04/07 06:38:19;;;;;;;13.13;7.10;;;;;;;12.39;100.00;98960.97;4995858;28;20099;-65
2024/04/07 06:40:47;;;;;;;10.82;7.00;;;;;;;12.77;100.00;98992.97;4982013;28;20045;-68
2024/04/07 06:43:13;;;;;;;11.07;6.30;;;;;;;12.52;100.00;98952.78;5010005;28;21493;-68
2024/04/07 06:45:38;;;;;;;9.48;6.20;;;;;;;12.71;100.00;98997.00;5013782;28;20057;-66
2024/04/07 06:48:04;;;;;;;13.07;7.10;;;;;;;12.66;100.00;98978.34;5005090;28;20305;-68
2024/04/07 06:50:33;;;;;;;10.52;6.50;;;;;;;12.55;100.00;98942.88;4996067;28;20468;-70
2024/04/07 06:52:59;;;;;;;8.70;7.13;;;;;;;12.64;100.00;98986.31;5002441;28;20030;-66
2024/04/07 06:55:24;;;;;;;13.52;7.40;;;;;;;12.64;100.00;98985.50;4996543;28;20033;-68
2024/04/07 06:57:49;;;;;;;11.43;7.70;;;;;;;12.82;100.00;98988.13;4996886;28;20418;-68
2024/04/07 07:00:15;;;;;;;12.50;7.93;;;;;;;12.83;100.00;98981.91;4983832;28;20085;-67
2024/04/07 07:02:43;;;;;;;11.68;7.40;;;;;;;12.80;100.00;98979.63;4992017;28;20045;-67
2024/04/07 07:05:09;;;;;;;10.27;7.78;;;;;;;12.61;100.00;98942.28;5029746;28;20559;-67
2024/04/07 07:07:36;;;;;;;10.32;7.32;;;;;;;12.84;100.00;98984.38;4996775;28;20225;-69
2024/04/07 07:10:06;;;;;;;10.82;8.02;;;;;;;12.71;100.00;98976.13;4994811;28;20071;-68
2024/04/07 07:12:31;;;;;;;13.18;8.05;;;;;;;12.93;100.00;98981.84;4999708;28;20026;-68
2024/04/07 07:14:57;;;;;;;11.27;7.55;;;;;;;13.01;100.00;98974.88;5019871;28;20045;-67
2024/04/07 07:17:27;;;;;;;11.82;7.53;;;;;;;13.22;100.00;98986.81;5017138;28;20029;-67
2024/04/07 07:19:54;;;;;;;12.00;7.28;;;;;;;13.29;100.00;98985.22;4999469;28;20092;-65
2024/04/07 07:22:19;;;;;;;10.65;7.18;;;;;;;13.35;100.00;98987.25;4999068;28;20032;-68
2024/04/07 07:24:45;;;;;;;10.40;6.88;;;;;;;13.50;100.00;98984.88;5032149;28;20030;-67
2024/04/07 07:27:10;;;;;;;10.13;7.05;;;;;;;13.68;100.00;98990.06;4995902;28;20025;-69
2024/04/07 07:29:36;;;;;;;9.93;6.85;;;;;;;13.50;100.00;98955.34;5002238;28;20472;-67
2024/04/07 07:32:02;;;;;;;10.82;7.28;;;;;;;13.63;100.00;98998.38;5007500;28;20140;-64
2024/04/07 07:34:27;;;;;;;10.23;6.57;;;;;;;13.38;100.00;98996.56;5011417;28;20112;-68
2024/04/07 07:36:53;;;;;;;10.95;7.25;;;;;;;13.42;100.00;98993.50;5011624;28;20123;-65
2024/04/07 07:39:18;;;;;;;10.43;7.63;;;;;;;13.26;100.00;98970.66;4985265;28;20062;-67
2024/04/07 07:41:47;;;;;;;10.50;7.15;;;;;;;13.61;100.00;99008.13;4978967;28;20026;-66
2024/04/07 07:44:15;;;;;;;12.45;7.22;;;;;;;13.48;100.00;98991.25;4992855;28;20165;-67
2024/04/07 07:46:43;;;;;;;9.05;6.80;;;;;;;13.74;100.00;99018.16;5002569;28;20065;-67
2024/04/07 07:49:08;;;;;;;11.70;7.18;;;;;;;13.75;100.00;99022.44;4996889;28;21153;-65
2024/04/07 07:51:41;;;;;;;9.18;6.72;;;;;;;13.73;100.00;99024.38;5009296;28;20030;-67
2024/04/07 07:54:07;;;;;;;17.10;9.43;;;;;;;13.68;100.00;99000.50;5023576;28;20895;-68
2024/04/07 07:56:34;;;;;;;16.50;9.57;;;;;;;13.80;100.00;99016.75;4987842;28;20045;-69
2024/04/07 07:59:00;;;;;;;12.20;6.70;;;;;;;13.83;100.00;99008.59;5013335;28;20377;-67
2024/04/07 08:01:25;;;;;;;11.30;6.55;;;;;;;13.99;100.00;99019.13;5010218;28;20049;-68
2024/04/07 08:03:50;;;;;;;10.30;6.28;;;;;;;14.02;100.00;99018.00;5019114;28;20099;-68
2024/04/07 08:06:16;;;;;;;11.30;6.32;;;;;;;14.08;100.00;99013.94;4995226;28;20033;-66
2024/04/07 08:08:44;;;;;;;13.43;7.45;;;;;;;14.00;100.00;99012.94;4993511;28;20447;-67
2024/04/07 08:11:09;;;;;;;11.98;6.07;;;;;;;14.10;100.00;98998.91;4994555;28;20029;-67
2024/04/07 08:13:34;;;;;;;11.80;6.47;;;;;;;14.24;100.00;99000.94;5009785;28;20026;-70
2024/04/07 08:16:02;;;;;;;8.35;5.97;;;;;;;14.17;100.00;99002.53;5011613;28;20037;-68
2024/04/07 08:18:30;;;;;;;10.90;6.40;;;;;;;14.21;100.00;99002.03;4993179;28;20061;-67
2024/04/07 08:20:56;;;;;;;11.65;6.80;;;;;;;14.23;100.00;99007.94;4994869;28;21145;-67
2024/04/07 08:23:21;;;;;;;12.38;7.22;;;;;;;14.29;100.00;99005.66;4995616;28;20049;-67
2024/04/07 08:25:47;;;;;;;12.80;6.75;;;;;;;14.20;100.00;98986.50;4996906;28;20103;-67
2024/04/07 08:28:12;;;;;;;10.93;6.57;;;;;;;14.19;100.00;98975.22;5000382;28;20029;-66
2024/04/07 08:30:40;;;;;;;10.68;6.45;;;;;;;14.26;100.00;99006.00;5029287;28;20041;-67
2024/04/07 08:33:05;;;;;;;9.93;6.00;;;;;;;14.34;100.00;99009.44;5029860;28;20033;-69
2024/04/07 08:35:31;;;;;;;12.43;6.72;;;;;;;14.49;100.00;99014.06;5003492;28;20052;-67
2024/04/07 08:37:59;;;;;;;10.30;5.85;;;;;;;14.73;100.00;99008.91;5033027;28;20551;-68
2024/04/07 08:40:24;;;;;;;10.35;6.00;;;;;;;14.88;100.00;99013.53;5015999;28;20032;-66
2024/04/07 08:42:51;;;;;;;9.52;5.95;;;;;;;14.68;100.00;99007.78;4998199;28;20042;-68
2024/04/07 08:45:21;;;;;;;10.23;5.90;;;;;;;14.67;100.00;99013.97;5014336;28;20614;-67
2024/04/07 08:47:46;;;;;;;11.80;5.95;;;;;;;14.77;100.00;99027.75;4998951;28;20049;-69
2024/04/07 08:50:15;;;;;;;8.90;5.70;;;;;;;14.59;100.00;99012.97;4979431;28;20034;-69
2024/04/07 08:52:43;;;;;;;8.40;5.53;;;;;;;14.76;100.00;99005.16;4996301;28;20026;-69
2024/04/07 08:55:10;;;;;;;11.45;5.68;;;;;;;15.01;100.00;99011.22;5030743;28;20037;-66
2024/04/07 08:57:38;;;;;;;8.05;5.05;;;;;;;15.19;100.00;99019.72;5004650;28;20029;-69
2024/04/07 09:00:06;;;;;;;8.70;5.10;;;;;;;15.29;100.00;99014.31;5000909;28;20763;-69
2024/04/07 09:02:31;;;;;;;8.27;4.68;;;;;;;14.94;100.00;98995.34;5001884;28;20201;-69
2024/04/07 09:05:00;;;;;;;7.97;5.43;;;;;;;15.06;100.00;99014.19;5021849;28;20050;-68
2024/04/07 09:07:25;;;;;;;8.70;4.70;;;;;;;15.15;100.00;99010.56;4966444;28;20070;-64
2024/04/07 09:09:56;;;;;;;9.38;4.80;;;;;;;15.11;100.00;99001.41;4997882;28;20161;-63
2024/04/07 09:12:21;;;;;;;11.50;5.00;;;;;;;15.00;100.00;98970.31;4987181;28;20038;-66
2024/04/07 09:14:51;;;;;;;11.68;5.30;;;;;;;15.31;100.00;98996.63;5017877;28;20824;-66
2024/04/07 09:17:19;;;;;;;8.65;5.30;;;;;;;15.52;100.00;98997.94;4982351;28;20276;-66
2024/04/07 09:19:47;;;;;;;8.98;4.47;;;;;;;15.49;100.00;98993.81;4999356;28;20035;-65
2024/04/07 09:22:12;;;;;;;10.15;4.80;;;;;;;15.65;100.00;98992.16;4996763;28;20110;-67
2024/04/07 09:24:38;;;;;;;8.10;4.57;;;;;;;15.47;100.00;98958.28;5014459;28;20038;-65
2024/04/07 09:27:09;;;;;;;8.88;4.60;;;;;;;15.76;100.00;98992.63;5013736;28;20034;-64
2024/04/07 09:29:38;;;;;;;11.77;4.30;;;;;;;15.97;100.00;98985.19;4991172;28;20038;-67
2024/04/07 09:32:04;;;;;;;9.30;4.70;;;;;;;16.00;100.00;98979.63;4998341;28;20429;-63
2024/04/07 09:34:35;;;;;;;9.27;3.90;;;;;;;16.08;100.00;98987.44;4998393;28;20030;-64
2024/04/07 09:37:04;;;;;;;6.88;4.30;;;;;;;16.22;100.00;98983.28;4983595;28;20049;-64
2024/04/07 09:39:29;;;;;;;6.97;3.80;;;;;;;16.20;100.00;98983.44;4984504;28;20169;-64
2024/04/07 09:41:58;;;;;;;7.40;3.53;;;;;;;16.47;100.00;98986.59;5007429;28;20910;-66
2024/04/07 09:44:24;;;;;;;7.07;3.90;;;;;;;16.71;100.00;98981.16;5001231;28;20167;-65
2024/04/07 09:47:01;;;;;;;6.70;3.95;;;;;;;16.84;100.00;98975.34;4982235;28;20062;-63
2024/04/07 09:49:35;;;;;;;7.50;4.05;;;;;;;16.92;100.00;98977.13;4997949;28;20095;-64
2024/04/07 09:52:03;;;;;;;7.25;3.88;;;;;;;17.04;100.00;98983.56;4981571;28;20027;-62
2024/04/07 09:54:37;;;;;;;8.77;4.13;;;;;;;17.28;100.00;98979.91;4964248;28;20037;-65
2024/04/07 09:57:05;;;;;;;10.60;3.78;;;;;;;17.38;100.00;98966.53;4999247;28;20026;-66
2024/04/07 09:59:30;;;;;;;7.68;3.60;;;;;;;17.54;100.00;98972.59;4995872;28;20366;-64
2024/04/07 10:01:56;;;;;;;6.63;3.00;;;;;;;17.76;100.00;98965.59;4988585;28;20037;-65
2024/04/07 10:04:24;;;;;;;6.05;3.03;;;;;;;17.74;100.00;98944.78;4995514;28;20681;-64
2024/04/07 10:06:52;;;;;;;5.82;3.17;;;;;;;17.95;100.00;98964.28;4979488;28;20506;-64
2024/04/07 10:09:18;;;;;;;6.18;3.08;;;;;;;17.99;100.00;98955.81;4983153;28;20101;-65
2024/04/07 10:11:48;;;;;;;9.38;3.15;;;;;;;18.10;100.00;98957.16;5016606;28;20061;-64
2024/04/07 10:14:17;;;;;;;5.78;2.63;;;;;;;18.35;100.00;98951.56;4983465;28;20034;-65
2024/04/07 10:16:50;;;;;;;6.68;3.05;;;;;;;18.53;100.00;98943.25;5016856;28;20036;-66
2024/04/07 10:19:19;;;;;;;7.80;3.38;;;;;;;18.76;100.00;98953.56;4989113;28;20048;-66
2024/04/07 10:21:45;;;;;;;6.07;3.03;;;;;;;18.76;100.00;98922.78;4984204;28;20124;-63
2024/04/07 10:24:10;;;;;;;7.53;3.28;;;;;;;18.89;100.00;98945.00;5000419;28;20033;-62
2024/04/07 10:26:36;;;;;;;8.30;3.40;;;;;;;18.98;100.00;98931.53;4998759;28;20041;-67
2024/04/07 10:29:09;;;;;;;8.98;3.15;;;;;;;19.16;100.00;98922.31;4999126;28;20026;-64
2024/04/07 10:31:38;;;;;;;6.18;2.67;;;;;;;19.46;100.00;98930.81;4982469;28;20034;-64
2024/04/07 10:34:22;;;;;;;6.82;2.90;;;;;;;19.70;100.00;98926.88;4980933;28;20033;-64
2024/04/07 10:36:52;;;;;;;8.50;3.60;;;;;;;19.66;100.00;98923.00;4998644;28;20058;-67
2024/04/07 10:39:24;;;;;;;7.05;3.20;;;;;;;19.55;100.00;98926.22;4983078;28;20038;-66
2024/04/07 10:41:53;;;;;;;6.47;2.95;;;;;;;19.37;100.00;98921.44;4984331;28;20028;-64
2024/04/07 10:44:20;;;;;;;6.78;3.30;;;;;;;19.38;91.45;98918.63;4988265;28;20574;-65
2024/04/07 10:46:46;;;;;;;7.13;3.00;;;;;;;19.55;87.34;98913.03;4997257;28;20558;-64
2024/04/07 10:49:14;;;;;;;7.53;3.20;;;;;;;19.74;84.27;98906.22;4998379;28;20112;-64
2024/04/07 10:51:46;;;;;;;7.63;3.08;;;;;;;20.02;83.92;98900.81;4984094;28;20038;-65
2024/04/07 10:54:11;;;;;;;7.22;2.80;;;;;;;20.15;83.04;98897.41;5004196;28;20145;-65
2024/04/07 10:56:37;;;;;;;6.63;3.20;;;;;;;19.95;83.10;98852.50;5018854;28;20048;-64
2024/04/07 10:59:02;;;;;;;6.20;3.08;;;;;;;20.09;82.56;98890.31;4997555;28;20026;-66
2024/04/07 11:01:29;;;;;;;7.90;2.75;;;;;;;19.99;81.22;98877.50;5001293;28;20042;-65
2024/04/07 11:03:57;;;;;;;6.65;2.83;;;;;;;19.88;77.07;98878.06;5014018;28;20647;-66
2024/04/07 11:06:25;;;;;;;6.72;2.92;;;;;;;20.02;74.80;98879.72;5001010;28;20037;-66
2024/04/07 11:08:54;;;;;;;7.50;2.80;;;;;;;20.16;73.31;98876.09;5000147;28;20233;-67
2024/04/07 11:11:21;;;;;;;8.50;3.17;;;;;;;20.29;73.30;98867.38;4989994;28;20033;-67
2024/04/07 11:13:47;;;;;;;8.07;2.78;;;;;;;20.53;70.63;98862.53;5000301;28;20452;-66
2024/04/07 11:16:12;;;;;;;4.80;2.30;;;;;;;20.44;69.99;98858.47;4982954;28;20034;-65
2024/04/07 11:18:38;;;;;;;8.70;3.08;;;;;;;20.55;70.44;98858.69;4987693;28;21394;-64
2024/04/07 11:21:06;;;;;;;6.13;2.60;;;;;;;20.38;68.96;98817.84;5016709;28;20068;-63
2024/04/07 11:23:35;;;;;;;7.77;2.80;;;;;;;20.81;68.81;98845.66;4997373;28;20038;-66